| time (UTC) | temp C | wind direction | speed KPH | gust KPH | rain 1hr cm | rain 24hr cm | rain mn cm | humidity % | barometer mb |
| 20260505101518 | -17 | 47 | 6.4 | 14.5 | 0.00 | 0.00 | 0.00 | 1013.9 | |
| 20260505100013 | -17 | 69 | 9.7 | 17.7 | 0.00 | 0.00 | 0.00 | 1013.7 | |
| 20260505094509 | -17 | 76 | 11.3 | 19.3 | 0.00 | 0.00 | 0.00 | 1013.6 | |
| 20260505091501 | -17 | 59 | 8.0 | 17.7 | 0.00 | 0.00 | 0.00 | 1013.4 | |
| 20260505090100 | -17 | 58 | 12.9 | 22.5 | 0.00 | 0.00 | 0.00 | 1013.4 | |
| 20260505084553 | -17 | 65 | 11.3 | 19.3 | 0.00 | 0.00 | 0.00 | 1013.2 | |
| 20260505081548 | -17 | 86 | 12.9 | 24.1 | 0.00 | 0.00 | 0.00 | 1013.2 | |
| 20260505080041 | -17 | 38 | 11.3 | 22.5 | 0.00 | 0.00 | 0.00 | 1013.2 | |
| 20260505074541 | -17 | 34 | 14.5 | 24.1 | 0.00 | 0.00 | 0.00 | 1013.2 | |
| 20260505071530 | -17 | 25 | 11.3 | 19.3 | 0.00 | 0.00 | 0.00 | 1012.8 | |
| 20260505070023 | -17 | 59 | 9.7 | 17.7 | 0.00 | 0.00 | 0.00 | 1012.6 | |
| 20260505064518 | -17 | 59 | 9.7 | 19.3 | 0.00 | 0.00 | 0.00 | 1012.4 | |
| 20260505061520 | -17 | 26 | 11.3 | 20.9 | 0.00 | 0.00 | 0.00 | 1012.1 | |
| 20260505060007 | -17 | 80 | 11.3 | 22.5 | 0.00 | 0.00 | 0.00 | 1012.0 | |
| 20260505054502 | -17 | 61 | 9.7 | 22.5 | 0.00 | 0.00 | 0.00 | 1012.0 | |
| 20260505051501 | -17 | 71 | 11.3 | 22.5 | 0.00 | 0.00 | 0.00 | 1011.7 | |
| 20260505041614 | -17 | 59 | 9.7 | 19.3 | 0.00 | 0.00 | 0.00 | 1011.5 | |
| 20260505040058 | -17 | 38 | 9.7 | 20.9 | 0.00 | 0.00 | 0.00 | 1011.3 | |
| 20260505034604 | -17 | 57 | 9.7 | 20.9 | 0.00 | 0.00 | 0.00 | 1011.1 | |
| 20260505031606 | -17 | 50 | 11.3 | 20.9 | 0.00 | 0.00 | 0.00 | 1010.9 | |
| 20260505030055 | -17 | 36 | 12.9 | 20.9 | 0.00 | 0.00 | 0.00 | 1010.9 | |
| 20260505024551 | -17 | 61 | 14.5 | 22.5 | 0.00 | 0.00 | 0.00 | 1010.6 | |
| 20260505021546 | -17 | 42 | 14.5 | 20.9 | 0.00 | 0.00 | 0.00 | 1010.3 | |
| 20260505020038 | -17 | 57 | 11.3 | 17.7 | 0.00 | 0.00 | 0.00 | 1010.1 | |
| 20260505014541 | -17 | 52 | 8.0 | 19.3 | 0.00 | 0.00 | 0.00 | 1010.1 | |
| 20260505011534 | -17 | 49 | 11.3 | 19.3 | 0.00 | 0.00 | 0.00 | 1010.1 | |
| 20260505010033 | -17 | 65 | 11.3 | 19.3 | 0.00 | 0.00 | 0.00 | 1010.2 | |
| 20260505004531 | -17 | 53 | 12.9 | 19.3 | 0.00 | 0.00 | 0.00 | 1010.0 | |
| 20260505001535 | -17 | 58 | 9.7 | 19.3 | 0.00 | 0.00 | 0.00 | 1009.8 | |
| 20260505000038 | -17 | 33 | 8.0 | 17.7 | 0.00 | 0.00 | 0.00 | 1009.8 | |
| 20260504234528 | -17 | 64 | 8.0 | 17.7 | 0.00 | 0.00 | 0.00 | 1009.8 | |
| 20260504231535 | -17 | 69 | 12.9 | 19.3 | 0.00 | 0.00 | 0.00 | 1009.9 | |
| 20260504230026 | -17 | 59 | 9.7 | 17.7 | 0.00 | 0.00 | 0.00 | 1010.0 | |
| 20260504224527 | -17 | 61 | 8.0 | 16.1 | 0.00 | 0.00 | 0.00 | 1010.0 | |
| 20260504221523 | -17 | 63 | 8.0 | 17.7 | 0.00 | 0.00 | 0.00 | 1010.4 | |
| 20260504220021 | -17 | 35 | 12.9 | 19.3 | 0.00 | 0.00 | 0.00 | 1010.5 | |
| 20260504214515 | -17 | 51 | 3.2 | 16.1 | 0.00 | 0.00 | 0.00 | 1010.5 | |
| 20260504211513 | -17 | 55 | 8.0 | 17.7 | 0.00 | 0.00 | 0.00 | 1010.8 | |
| 20260504210006 | -17 | 13 | 4.8 | 16.1 | 0.00 | 0.00 | 0.00 | 1011.0 | |
| 20260504204502 | -17 | 53 | 8.0 | 17.7 | 0.00 | 0.00 | 0.00 | 1011.0 | |
| 20260504203158 | -17 | 55 | 11.3 | 17.7 | 0.00 | 0.00 | 0.00 | 1011.1 | |
| 20260504201555 | -17 | 58 | 11.3 | 16.1 | 0.00 | 0.00 | 0.00 | 1011.2 | |
| 20260504200051 | -17 | 57 | 8.0 | 14.5 | 0.00 | 0.00 | 0.00 | 1011.2 | |
| 20260504194602 | -17 | 55 | 8.0 | 16.1 | 0.00 | 0.00 | 0.00 | 1011.2 | |
| 20260504193145 | -17 | 61 | 8.0 | 16.1 | 0.00 | 0.00 | 0.00 | 1011.4 | |
| 20260504191546 | -17 | 49 | 9.7 | 17.7 | 0.00 | 0.00 | 0.00 | 1011.5 | |
| 20260504190044 | -17 | 44 | 9.7 | 19.3 | 0.00 | 0.00 | 0.00 | 1011.7 | |
| 20260504184538 | -17 | 50 | 6.4 | 14.5 | 0.00 | 0.00 | 0.00 | 1011.8 | |
| 20260504183126 | -17 | 32 | 9.7 | 16.1 | 0.00 | 0.00 | 0.00 | 1011.9 | |
| 20260504181523 | -17 | 46 | 11.3 | 17.7 | 0.00 | 0.00 | 0.00 | 1011.9 | |
| 20260504180021 | -17 | 54 | 8.0 | 16.1 | 0.00 | 0.00 | 0.00 | 1011.8 | |
| 20260504174515 | -17 | 44 | 11.3 | 17.7 | 0.00 | 0.00 | 0.00 | 1011.8 | |
| 20260504173132 | -17 | 59 | 8.0 | 16.1 | 0.00 | 0.00 | 0.00 | 1011.8 | |
| 20260504171507 | -17 | 53 | 9.7 | 16.1 | 0.00 | 0.00 | 0.00 | 1011.8 |